Time;durP1;ratioP1;P1;durP2;ratioP2;P2;SDS_P1;SDS_P2;PMS_P1;PMS_P2;Temp;Humidity;BMP_temperature;BMP_pressure;BME280_temperature;BME280_humidity;BME280_pressure;Samples;Min_cycle;Max_cycle;Signal;HPM_P1;HPM_P2
2022/07/01 00:45:48;;;;;;;;;;;;;;;23.41;45.87;101494.66;5645721;23;19915;-85
2022/07/01 00:58:47;;;;;;;;;;;;;;;23.39;45.96;101493.81;5625031;23;19908;-87
2022/07/01 01:34:49;;;;;;;;;;;;;;;23.38;46.12;101469.28;5086777;23;19930;-85
2022/07/01 01:37:15;;;;;;;;;;;;;;;23.40;46.13;101466.63;4889420;29;19935;-85
2022/07/01 01:52:54;;;;;;;;;;;;;;;23.36;46.03;101489.47;5384610;23;19936;-86
2022/07/01 02:31:59;;;;;;;;;;;;;;;23.32;46.09;101536.84;5565710;23;19908;-85
2022/07/01 02:34:30;;;;;;;;;;;;;;;23.32;46.22;101535.13;4887836;29;19966;-84
2022/07/01 02:56:28;;;;;;;;;;;;;;;23.31;46.48;101537.78;5631277;23;19908;-85
2022/07/01 02:58:54;;;;;;;;;;;;;;;23.30;46.03;101533.41;4887926;29;19934;-85
2022/07/01 03:01:19;;;;;;;;;;;;;;;23.28;46.18;101535.19;4888452;29;19906;-85
2022/07/01 03:03:45;;;;;;;;;;;;;;;23.27;46.32;101536.09;5226524;23;20025;-85
2022/07/01 03:06:10;;;;;;;;;;;;;;;23.27;46.12;101544.84;4887880;29;19943;-85
2022/07/01 03:08:36;;;;;;;;;;;;;;;23.27;46.32;101542.22;4888765;29;19904;-86
2022/07/01 03:13:39;;;;;;;;;;;;;;;23.25;46.21;101545.78;4971475;23;19932;-85
2022/07/01 03:31:35;;;;;;;;;;;;;;;23.26;46.35;101521.25;5774343;23;19923;-85
2022/07/01 03:34:01;;;;;;;;;;;;;;;23.25;46.19;101514.28;4887391;29;19963;-85
2022/07/01 03:36:28;;;;;;;;;;;;;;;23.25;46.44;101512.50;4887320;29;19919;-85
2022/07/01 03:38:54;;;;;;;;;;;;;;;23.25;46.04;101511.66;4887577;29;19989;-85
2022/07/01 03:43:54;;;;;;;;;;;;;;;23.23;46.22;101535.31;5403244;23;19932;-78
2022/07/01 03:46:19;;;;;;;;;;;;;;;23.23;46.12;101539.69;4874478;29;20016;-78
2022/07/01 03:48:45;;;;;;;;;;;;;;;23.24;45.90;101525.69;4874124;29;19923;-79
2022/07/01 03:51:10;;;;;;;;;;;;;;;23.23;45.93;101522.16;4856344;29;19923;-80
2022/07/01 03:56:19;;;;;;;;;;;;;;;23.26;46.22;101543.13;4879628;29;19972;-80
2022/07/01 03:58:46;;;;;;;;;;;;;;;23.22;46.01;101538.84;4895710;29;19915;-80
2022/07/01 04:01:11;;;;;;;;;;;;;;;23.21;46.37;101542.34;4901261;29;19916;-81
2022/07/01 04:03:38;;;;;;;;;;;;;;;23.23;46.33;101550.19;4901149;29;19923;-80
2022/07/01 04:06:04;;;;;;;;;;;;;;;23.22;46.27;101549.34;4893584;29;19968;-80
2022/07/01 04:08:34;;;;;;;;;;;;;;;23.23;46.05;101552.81;4892022;29;19912;-80
2022/07/01 04:10:59;;;;;;;;;;;;;;;23.22;46.35;101559.84;4875117;29;20385;-80
2022/07/01 04:13:26;;;;;;;;;;;;;;;23.25;46.10;101567.66;4890854;29;19918;-80
2022/07/01 04:15:52;;;;;;;;;;;;;;;23.24;46.06;101565.06;4892516;29;19918;-81
2022/07/01 04:18:19;;;;;;;;;;;;;;;23.22;45.95;101562.47;4883326;29;19907;-80
2022/07/01 04:22:32;;;;;;;;;;;;;;;23.23;46.01;101558.06;4875762;29;20370;-80
2022/07/01 04:23:34;;;;;;;;;;;;;;;23.23;46.24;101563.31;4890607;29;19915;-79
2022/07/01 04:26:00;;;;;;;;;;;;;;;23.25;46.04;101564.16;4872781;29;20010;-80
2022/07/01 04:28:26;;;;;;;;;;;;;;;23.26;45.69;101564.13;4890139;29;19912;-80
2022/07/01 04:30:55;;;;;;;;;;;;;;;23.27;45.86;101562.38;4890479;29;19967;-80
2022/07/01 05:10:34;;;;;;;;;;;;;;;23.21;46.47;101584.34;5930000;23;20021;31
2022/07/01 05:21:58;;;;;;;;;;;;;;;23.10;47.07;101594.22;4897833;29;19926;-82
2022/07/01 05:27:35;;;;;;;;;;;;;;;23.15;46.51;101601.13;4899447;29;19976;-82
2022/07/01 05:33:26;;;;;;;;;;;;;;;23.12;46.56;101601.16;4905807;29;19903;-84
2022/07/01 05:43:07;;;;;;;;;;;;;;;24.60;42.83;101595.09;4905004;29;19911;-85
2022/07/01 05:49:29;;;;;;;;;;;;;;;23.40;45.99;101621.59;4848557;29;19938;-84
2022/07/01 05:52:19;;;;;;;;;;;;;;;23.29;46.35;101616.56;4831814;29;19987;-85
2022/07/01 06:00:09;;;;;;;;;;;;;;;23.38;46.29;101603.25;5375874;23;19914;-85
2022/07/01 06:02:47;;;;;;;;;;;;;;;23.42;46.52;101604.91;4901226;29;19924;-86
2022/07/01 06:05:22;;;;;;;;;;;;;;;23.42;46.47;101604.91;4894995;29;19915;-79
2022/07/01 06:07:47;;;;;;;;;;;;;;;23.40;46.57;101609.31;4864373;29;20107;-79
2022/07/01 06:13:12;;;;;;;;;;;;;;;23.38;46.57;101595.38;4848196;29;19919;-85
2022/07/01 06:16:06;;;;;;;;;;;;;;;23.36;46.90;101589.28;4847368;29;19897;-86
2022/07/01 06:22:16;;;;;;;;;;;;;;;;;;;;;
2022/07/01 06:24:59;;;;;;;;;;;;;;;23.51;46.56;101589.84;4828263;29;19912;-85
2022/07/01 06:27:24;;;;;;;;;;;;;;;23.58;46.46;101586.16;4855561;29;19919;-80
2022/07/01 06:29:50;;;;;;;;;;;;;;;23.54;46.64;101603.78;4885101;29;19911;-79
2022/07/01 06:32:15;;;;;;;;;;;;;;;23.44;46.96;101604.88;4895395;29;19947;-80
2022/07/01 06:34:41;;;;;;;;;;;;;;;23.45;47.25;101613.63;4896489;29;19896;-80
2022/07/01 06:52:56;;;;;;;;;;;;;;;23.35;47.13;101600.69;5652029;23;19927;-85
2022/07/01 07:04:25;;;;;;;;;;;;;;;23.57;46.58;101587.09;4957853;23;19928;-82
2022/07/01 07:16:51;;;;;;;;;;;;;;;23.49;46.77;101612.66;4904335;29;20000;-85
2022/07/01 07:27:32;;;;;;;;;;;;;;;23.39;45.58;101622.50;5142737;23;19924;-83
2022/07/01 07:30:15;;;;;;;;;;;;;;;23.38;45.30;101628.66;4882179;29;19962;-82
2022/07/01 07:32:53;;;;;;;;;;;;;;;23.39;45.46;101633.03;5191288;24;20995;-85
2022/07/01 07:41:26;;;;;;;;;;;;;;;23.31;44.62;101630.53;4881543;29;19930;-78
2022/07/01 07:43:51;;;;;;;;;;;;;;;23.28;44.75;101633.25;4868480;29;19943;-79
2022/07/01 07:46:16;;;;;;;;;;;;;;;23.33;44.27;101635.78;4869762;29;19948;-78
2022/07/01 07:48:43;;;;;;;;;;;;;;;23.46;43.63;101644.25;4874106;29;20006;-78
2022/07/01 07:51:08;;;;;;;;;;;;;;;23.39;44.02;101649.63;4858817;29;19923;-77
2022/07/01 07:53:34;;;;;;;;;;;;;;;23.49;43.89;101642.41;4853904;29;19916;-80
2022/07/01 07:55:59;;;;;;;;;;;;;;;23.62;43.19;101657.00;4852923;29;19912;-79
2022/07/01 07:58:25;;;;;;;;;;;;;;;23.67;43.24;101659.56;4869614;29;20371;-81
2022/07/01 08:00:58;;;;;;;;;;;;;;;23.83;42.97;101662.72;4873382;29;19980;-80
2022/07/01 08:03:38;;;;;;;;;;;;;;;23.76;43.11;101666.41;4992642;24;19929;-83
2022/07/01 08:06:03;;;;;;;;;;;;;;;23.80;42.22;101660.16;4857711;29;19925;-78
2022/07/01 08:08:32;;;;;;;;;;;;;;;23.79;42.63;101659.31;4854070;29;19916;-78
2022/07/01 08:10:57;;;;;;;;;;;;;;;23.77;42.32;101657.59;4854914;29;19912;-78
2022/07/01 08:13:30;;;;;;;;;;;;;;;23.83;41.82;101657.47;4862884;29;20004;-83
2022/07/01 08:16:16;;;;;;;;;;;;;;;23.83;41.66;101659.25;4846692;29;20333;-82
2022/07/01 08:18:43;;;;;;;;;;;;;;;23.66;41.67;101651.69;4828702;29;19904;-79
2022/07/01 08:21:30;;;;;;;;;;;;;;;23.69;41.50;101657.75;4849069;29;19915;-85
2022/07/01 08:26:58;;;;;;;;;;;;;;;23.56;41.83;101665.03;4845374;29;19928;-78
2022/07/01 08:29:24;;;;;;;;;;;;;;;23.65;41.24;101670.97;4832834;29;19924;-79
2022/07/01 08:31:49;;;;;;;;;;;;;;;23.65;41.17;101669.25;4809147;29;19917;-79
2022/07/01 08:34:15;;;;;;;;;;;;;;;23.68;41.27;101690.19;4840860;29;19965;-79
2022/07/01 08:41:51;;;;;;;;;;;;;;;23.69;41.26;101696.28;4919414;23;19907;-84
2022/07/01 08:44:16;;;;;;;;;;;;;;;23.56;41.17;101696.56;4891623;29;19977;-84
2022/07/01 08:46:42;;;;;;;;;;;;;;;23.66;40.86;101693.75;4891060;29;19987;-84
2022/07/01 08:49:07;;;;;;;;;;;;;;;23.65;41.24;101702.50;4891068;29;19971;-84
2022/07/01 08:54:05;;;;;;;;;;;;;;;23.64;41.25;101704.28;4904646;29;19907;-84
2022/07/01 08:56:45;;;;;;;;;;;;;;;23.60;41.39;101702.59;5348902;24;20030;-84
2022/07/01 09:05:39;;;;;;;;;;;;;;;23.57;41.39;101728.97;4869444;29;19924;-86
2022/07/01 10:26:02;;;;;;;;;;;;;;;23.43;40.41;101773.91;4154762;27;19924;-81
2022/07/01 10:28:35;;;;;;;;;;;;;;;23.48;40.29;101771.19;4865484;29;20279;-82
2022/07/01 10:39:31;;;;;;;;;;;;;;;23.58;40.57;101784.13;5389305;23;19924;-81
2022/07/01 10:42:03;;;;;;;;;;;;;;;23.59;40.47;101777.94;4885765;29;19974;-79
2022/07/01 11:18:41;;;;;;;;;;;;;;;23.62;41.21;101779.66;5814954;23;19940;-82
2022/07/01 17:32:36;;;;;;;;;;;;;;;24.08;40.75;101965.41;5055508;23;19958;-81
2022/07/01 17:35:03;;;;;;;;;;;;;;;24.07;40.68;101961.06;4877346;29;19926;-80
2022/07/01 17:37:29;;;;;;;;;;;;;;;24.08;40.96;101967.19;4887235;29;19918;-79
2022/07/01 17:39:58;;;;;;;;;;;;;;;24.08;40.71;101968.03;4871953;29;19911;-79
2022/07/01 17:42:24;;;;;;;;;;;;;;;24.08;40.75;101968.03;4887731;29;19915;-79
2022/07/01 17:44:49;;;;;;;;;;;;;;;24.08;40.91;101972.44;4871722;29;20039;-80
2022/07/01 17:47:21;;;;;;;;;;;;;;;24.08;40.91;101982.94;4859192;29;19963;-81
2022/07/01 17:49:49;;;;;;;;;;;;;;;24.08;40.89;101975.06;4895430;29;20010;-79
2022/07/01 17:52:23;;;;;;;;;;;;;;;24.07;40.93;101974.19;4877706;29;19918;-81
2022/07/01 17:54:49;;;;;;;;;;;;;;;24.07;40.93;101968.94;4991303;23;19944;-81
2022/07/01 17:57:14;;;;;;;;;;;;;;;24.07;41.08;101974.19;4873360;29;20283;-81
2022/07/01 17:59:41;;;;;;;;;;;;;;;24.08;41.03;101980.31;4872995;29;19916;-80
2022/07/01 18:02:07;;;;;;;;;;;;;;;24.07;40.80;101983.88;4891009;29;19915;-80
2022/07/01 18:04:34;;;;;;;;;;;;;;;24.07;40.47;101975.97;4894764;29;19935;-81
2022/07/01 18:07:21;;;;;;;;;;;;;;;24.02;39.86;101974.28;4881023;29;19937;-83
2022/07/01 18:09:53;;;;;;;;;;;;;;;23.92;39.27;101975.34;4882830;29;19927;-79
2022/07/01 18:12:33;;;;;;;;;;;;;;;23.82;38.49;101979.03;4890249;29;19911;-79
2022/07/01 18:15:19;;;;;;;;;;;;;;;23.72;37.87;101978.31;4874861;29;19911;-80
2022/07/01 18:17:45;;;;;;;;;;;;;;;23.74;38.36;101980.91;4870944;29;19912;-79
2022/07/01 18:20:24;;;;;;;;;;;;;;;23.77;39.13;101978.25;4886750;29;20414;-80
2022/07/01 18:22:57;;;;;;;;;;;;;;;23.75;39.07;101975.66;4873201;29;20287;-80
2022/07/01 18:25:28;;;;;;;;;;;;;;;23.74;38.01;101988.81;4889142;29;19931;-80
2022/07/01 18:27:55;;;;;;;;;;;;;;;23.66;37.87;101982.81;4873216;29;20374;-80
2022/07/01 18:30:23;;;;;;;;;;;;;;;23.65;37.32;101983.69;4874274;29;19915;-79
2022/07/01 18:32:53;;;;;;;;;;;;;;;23.67;39.13;101984.53;4870778;29;19967;-80
2022/07/01 18:35:19;;;;;;;;;;;;;;;23.71;38.46;101981.81;4888610;29;19912;-80
2022/07/01 18:37:46;;;;;;;;;;;;;;;23.73;38.69;101982.66;4888676;29;19998;-80
2022/07/01 18:40:12;;;;;;;;;;;;;;;23.71;37.31;101989.69;4871279;29;20381;-79
2022/07/01 18:42:37;;;;;;;;;;;;;;;23.66;36.48;101988.06;4870495;29;19915;-80
2022/07/01 18:45:04;;;;;;;;;;;;;;;23.58;35.90;101991.69;4870401;29;19912;-80
2022/07/01 18:47:29;;;;;;;;;;;;;;;23.53;36.68;101985.63;4873635;29;19911;-80
2022/07/01 18:49:55;;;;;;;;;;;;;;;23.52;36.28;101989.16;4873657;29;19936;-78
2022/07/01 18:52:20;;;;;;;;;;;;;;;23.54;36.31;101991.72;4861031;29;20419;-78
2022/07/01 18:54:49;;;;;;;;;;;;;;;23.53;36.34;101997.91;4892808;29;19922;-78
2022/07/01 18:57:21;;;;;;;;;;;;;;;23.51;36.44;102002.31;4899330;29;19975;-81
2022/07/01 19:06:31;;;;;;;;;;;;;;;23.55;37.59;102004.00;4884050;29;19911;-85
2022/07/01 19:46:14;;;;;;;;;;;;;;;23.54;39.96;102037.28;5214720;23;19924;-81
2022/07/01 19:59:27;;;;;;;;;;;;;;;23.53;40.74;102051.31;4896769;29;19919;-81
2022/07/01 20:02:13;;;;;;;;;;;;;;;23.51;40.27;102044.34;4879042;29;20359;-81
2022/07/01 20:04:43;;;;;;;;;;;;;;;23.50;40.35;102054.00;4881990;29;19915;-81
2022/07/01 20:07:14;;;;;;;;;;;;;;;23.48;40.28;102060.16;4884027;29;19932;-81
2022/07/01 20:10:00;;;;;;;;;;;;;;;23.48;40.45;102055.78;4886809;29;19912;-82
2022/07/01 20:15:05;;;;;;;;;;;;;;;23.46;40.08;102057.56;5117681;23;19924;-80
2022/07/01 20:17:33;;;;;;;;;;;;;;;23.44;39.83;102066.34;4896336;29;19911;-80
2022/07/01 20:19:58;;;;;;;;;;;;;;;23.43;40.32;102073.38;4897913;29;19911;-80
2022/07/01 20:22:23;;;;;;;;;;;;;;;23.43;39.98;102070.75;4867778;29;20425;-79
2022/07/01 20:24:55;;;;;;;;;;;;;;;23.44;39.89;102077.72;4888193;29;19911;-82
2022/07/01 20:56:13;;;;;;;;;;;;;;;23.42;39.70;102090.00;4140328;27;19935;-81
2022/07/01 20:58:46;;;;;;;;;;;;;;;23.39;39.86;102095.31;4901927;29;19913;-81
2022/07/01 21:04:18;;;;;;;;;;;;;;;23.40;39.87;102091.78;4905694;29;20018;-81
